Time;durP1;ratioP1;P1;durP2;ratioP2;P2;SDS_P1;SDS_P2;PMS_P1;PMS_P2;Temp;Humidity;BMP_temperature;BMP_pressure;BME280_temperature;BME280_humidity;BME280_pressure;Samples;Min_cycle;Max_cycle;Signal;HPM_P1;HPM_P2
2021/12/09 00:00:50;;;;;;;22.15;11.48;;;1.40;99.90;;;;;;4980496;28;20379;-67
2021/12/09 00:03:16;;;;;;;27.42;12.18;;;1.40;99.90;;;;;;4998327;28;20054;-66
2021/12/09 00:05:44;;;;;;;22.50;12.45;;;1.40;99.90;;;;;;4981174;28;20043;-66
2021/12/09 00:08:10;;;;;;;21.55;12.02;;;1.50;99.90;;;;;;4981124;28;20390;-67
2021/12/09 00:10:36;;;;;;;25.70;12.00;;;1.50;99.90;;;;;;4998118;28;20054;-68
2021/12/09 00:13:04;;;;;;;25.42;12.70;;;1.50;99.90;;;;;;4997375;28;20053;-67
2021/12/09 00:15:31;;;;;;;19.67;12.32;;;1.50;99.90;;;;;;4998134;28;20039;-67
2021/12/09 00:17:57;;;;;;;25.38;12.23;;;1.50;99.90;;;;;;4981090;28;20109;-66
2021/12/09 00:20:23;;;;;;;25.25;12.68;;;1.60;99.90;;;;;;4997378;28;20042;-65
2021/12/09 00:22:48;;;;;;;22.67;12.65;;;1.50;99.90;;;;;;4997797;28;20042;-66
2021/12/09 00:25:14;;;;;;;27.13;11.70;;;1.50;99.90;;;;;;4997712;28;20474;-66
2021/12/09 00:27:42;;;;;;;27.05;13.13;;;1.60;99.90;;;;;;4980247;28;20054;-67
2021/12/09 00:30:09;;;;;;;22.90;12.88;;;1.50;99.90;;;;;;4980414;28;20502;-68
2021/12/09 00:32:35;;;;;;;23.85;11.85;;;1.50;99.90;;;;;;4980422;28;20050;-66
2021/12/09 00:35:03;;;;;;;26.35;13.05;;;1.50;99.90;;;;;;4980520;28;20038;-67
2021/12/09 00:37:36;;;;;;;23.30;12.57;;;1.50;99.90;;;;;;4980494;28;20053;-66
2021/12/09 00:40:02;;;;;;;;;;;1.50;99.90;;;;;;4979820;28;20367;-66
2021/12/09 00:42:28;;;;;;;28.23;12.52;;;1.40;99.90;;;;;;4997163;28;19930;-67
2021/12/09 00:44:54;;;;;;;26.13;12.68;;;1.40;99.90;;;;;;4980436;28;20053;-66
2021/12/09 00:47:21;;;;;;;23.33;13.30;;;1.30;99.90;;;;;;4997208;28;20505;-68
2021/12/09 00:49:48;;;;;;;26.02;13.45;;;1.30;99.90;;;;;;4979691;28;20058;-68
2021/12/09 00:52:15;;;;;;;21.50;13.13;;;1.20;99.90;;;;;;4979965;28;20050;-68
2021/12/09 00:54:42;;;;;;;26.95;13.63;;;1.20;99.90;;;;;;4984798;28;20064;-66
2021/12/09 00:57:09;;;;;;;24.48;13.70;;;1.20;99.90;;;;;;4982739;28;20074;-67
2021/12/09 00:59:35;;;;;;;25.38;14.10;;;1.20;99.90;;;;;;4996843;28;20061;-65
2021/12/09 01:02:01;;;;;;;25.15;13.70;;;1.30;99.90;;;;;;4980129;28;20038;-66
2021/12/09 01:04:27;;;;;;;31.95;15.32;;;1.30;99.90;;;;;;4979454;28;20133;-66
2021/12/09 01:06:53;;;;;;;30.20;14.65;;;1.30;99.90;;;;;;4979791;28;20189;-67
2021/12/09 01:09:18;;;;;;;29.15;14.77;;;1.30;99.90;;;;;;4979102;28;20375;-67
2021/12/09 01:11:44;;;;;;;20.70;14.38;;;1.20;99.90;;;;;;4979726;28;20046;-67
2021/12/09 01:14:10;;;;;;;27.60;14.38;;;1.30;99.90;;;;;;4979701;28;20050;-67
2021/12/09 01:16:36;;;;;;;34.22;15.48;;;1.30;99.90;;;;;;4979548;28;20042;-67
2021/12/09 01:19:02;;;;;;;33.08;15.73;;;1.40;99.90;;;;;;4963371;28;20050;-67
2021/12/09 01:21:29;;;;;;;27.50;15.68;;;1.40;99.90;;;;;;4979790;28;20073;-65
2021/12/09 01:23:54;;;;;;;31.50;17.77;;;1.40;99.90;;;;;;4979665;28;20371;-68
2021/12/09 01:26:20;;;;;;;34.85;16.70;;;1.40;99.90;;;;;;4996190;28;20061;-67
2021/12/09 01:28:57;;;;;;;31.02;15.30;;;1.40;99.90;;;;;;4980087;28;20128;-66
2021/12/09 01:31:30;;;;;;;27.15;15.20;;;1.30;99.90;;;;;;4979770;28;20416;-66
2021/12/09 01:34:01;;;;;;;25.58;14.80;;;1.30;99.90;;;;;;4996441;28;20120;-67
2021/12/09 01:36:28;;;;;;;28.42;14.80;;;1.30;99.90;;;;;;4978875;28;20090;-67
2021/12/09 01:38:54;;;;;;;32.30;16.35;;;1.30;99.90;;;;;;4979218;28;20065;-67
2021/12/09 01:41:20;;;;;;;29.33;16.55;;;1.30;99.90;;;;;;4996704;28;20450;-68
2021/12/09 01:43:47;;;;;;;31.92;17.02;;;1.30;99.90;;;;;;4979079;28;20065;-67
2021/12/09 01:46:16;;;;;;;35.33;16.95;;;1.30;99.90;;;;;;4996009;28;20054;-67
2021/12/09 01:48:45;;;;;;;31.00;15.65;;;1.30;99.90;;;;;;4979215;28;20065;-67
2021/12/09 01:51:11;;;;;;;29.75;16.45;;;1.30;99.90;;;;;;4995742;28;20057;-66
2021/12/09 01:53:37;;;;;;;35.22;16.45;;;1.30;99.90;;;;;;4979307;28;20463;-68
2021/12/09 01:56:06;;;;;;;28.88;16.15;;;1.30;99.90;;;;;;4997472;28;20479;-67
2021/12/09 01:58:32;;;;;;;29.63;16.10;;;1.30;99.90;;;;;;4984200;28;20049;-68
2021/12/09 02:00:58;;;;;;;33.65;17.08;;;1.30;99.90;;;;;;4978579;28;20104;-66
2021/12/09 02:03:24;;;;;;;30.63;15.82;;;1.20;99.90;;;;;;4995842;28;20136;-67
2021/12/09 02:05:50;;;;;;;36.13;17.50;;;1.20;99.90;;;;;;4978481;28;20498;-65
2021/12/09 02:08:16;;;;;;;35.72;17.15;;;1.20;99.90;;;;;;4995711;28;20042;-66
2021/12/09 02:10:44;;;;;;;26.35;15.50;;;1.10;99.90;;;;;;4995833;28;20060;-67
2021/12/09 02:13:10;;;;;;;33.35;16.77;;;1.10;99.90;;;;;;4978835;28;20046;-68
2021/12/09 02:15:37;;;;;;;32.15;16.45;;;1.10;99.90;;;;;;4978682;28;20478;-67
2021/12/09 02:18:08;;;;;;;29.73;16.33;;;1.10;99.90;;;;;;4978343;28;20042;-66
2021/12/09 02:20:35;;;;;;;32.47;17.25;;;1.00;99.90;;;;;;4977971;28;20125;-66
2021/12/09 02:23:06;;;;;;;31.88;16.88;;;1.00;99.90;;;;;;4995508;28;20064;-66
2021/12/09 02:25:32;;;;;;;32.38;16.45;;;1.00;99.90;;;;;;4978037;28;20089;-66
2021/12/09 02:27:58;;;;;;;34.85;18.48;;;0.90;99.90;;;;;;4978749;28;20443;-68
2021/12/09 02:30:23;;;;;;;40.83;16.80;;;1.00;99.90;;;;;;4978477;28;20124;-67
2021/12/09 02:32:49;;;;;;;33.13;17.10;;;0.90;99.90;;;;;;4995389;28;20378;-67
2021/12/09 02:35:14;;;;;;;35.47;18.50;;;1.40;99.90;;;;;;4978367;28;20058;-66
2021/12/09 02:37:41;;;;;;;34.88;18.30;;;0.90;99.90;;;;;;4995334;28;20054;-66
2021/12/09 02:40:08;;;;;;;37.53;18.77;;;1.30;99.90;;;;;;4978542;28;20367;-68
2021/12/09 02:42:34;;;;;;;32.83;17.58;;;0.90;99.90;;;;;;4978078;28;20046;-66
2021/12/09 02:45:01;;;;;;;36.95;18.33;;;0.90;99.90;;;;;;4978323;28;20089;-66
2021/12/09 02:47:26;;;;;;;37.10;19.92;;;0.90;99.90;;;;;;4977686;28;20061;-67
2021/12/09 02:49:52;;;;;;;37.58;19.80;;;0.90;99.90;;;;;;4994843;28;20062;-66
2021/12/09 02:52:19;;;;;;;33.63;19.00;;;0.90;99.90;;;;;;4978026;28;20054;-67
2021/12/09 02:54:44;;;;;;;34.25;19.38;;;0.90;99.90;;;;;;4962227;28;20129;-67
2021/12/09 02:57:10;;;;;;;36.90;19.27;;;1.80;99.90;;;;;;4977961;28;20551;-67
2021/12/09 02:59:36;;;;;;;43.15;20.20;;;0.80;99.90;;;;;;4977988;28;20364;-66
2021/12/09 03:02:05;;;;;;;40.85;19.98;;;0.80;99.90;;;;;;4977871;28;20455;-67
2021/12/09 03:04:41;;;;;;;38.28;19.60;;;0.80;99.90;;;;;;4981778;28;20132;-67
2021/12/09 03:07:18;;;;;;;42.47;20.23;;;0.80;99.90;;;;;;4982048;28;20062;-67
2021/12/09 03:09:50;;;;;;;35.42;20.08;;;0.80;99.90;;;;;;4998667;28;20463;-68
2021/12/09 03:12:27;;;;;;;41.95;20.02;;;0.80;99.90;;;;;;4965686;28;20046;-67
2021/12/09 03:14:53;;;;;;;43.63;22.48;;;0.80;99.90;;;;;;4987817;28;20132;-67
2021/12/09 03:17:20;;;;;;;39.20;22.27;;;0.80;99.90;;;;;;4986658;28;20046;-67
2021/12/09 03:19:47;;;;;;;33.92;19.25;;;0.80;99.90;;;;;;4998877;28;20046;-67
2021/12/09 03:22:13;;;;;;;43.58;21.70;;;0.80;99.90;;;;;;4982137;28;20348;-66
2021/12/09 03:24:39;;;;;;;39.03;19.33;;;0.80;99.90;;;;;;4998799;28;20078;-65
2021/12/09 03:27:05;;;;;;;43.47;22.88;;;0.80;99.90;;;;;;4998590;28;20117;-68
2021/12/09 03:29:31;;;;;;;42.83;20.83;;;0.80;99.90;;;;;;4981660;28;20481;-66
2021/12/09 03:32:00;;;;;;;44.30;21.23;;;0.80;99.90;;;;;;4981862;28;20050;-68
2021/12/09 03:34:31;;;;;;;40.17;21.10;;;0.70;99.90;;;;;;4981579;28;20050;-67
2021/12/09 03:37:00;;;;;;;37.95;21.52;;;0.70;99.90;;;;;;4998544;28;20478;-66
2021/12/09 03:39:29;;;;;;;39.50;22.00;;;0.70;99.90;;;;;;4998571;28;20226;-66
2021/12/09 03:41:56;;;;;;;44.95;22.40;;;0.80;99.90;;;;;;4998517;28;20738;-66
2021/12/09 03:44:22;;;;;;;41.65;22.38;;;0.70;99.90;;;;;;4981082;28;20046;-66
2021/12/09 03:46:51;;;;;;;37.35;22.13;;;1.20;99.90;;;;;;5000415;28;20172;-65
2021/12/09 03:49:17;;;;;;;43.92;23.40;;;0.70;99.90;;;;;;4998242;28;20357;-66
2021/12/09 03:51:43;;;;;;;42.40;22.38;;;0.80;99.90;;;;;;4981171;28;20054;-68
2021/12/09 03:54:09;;;;;;;43.45;24.23;;;0.80;99.90;;;;;;4980820;28;20077;-68
2021/12/09 03:56:36;;;;;;;44.42;22.73;;;0.70;99.90;;;;;;4980946;28;20081;-67
2021/12/09 03:59:04;;;;;;;50.33;23.50;;;0.70;99.90;;;;;;4981202;28;20047;-67
2021/12/09 04:01:30;;;;;;;42.85;23.98;;;0.70;99.90;;;;;;4980832;28;20054;-67
2021/12/09 04:03:55;;;;;;;44.22;23.20;;;0.70;99.90;;;;;;4998322;28;20042;-67
2021/12/09 04:06:21;;;;;;;50.03;24.40;;;0.70;99.90;;;;;;4997924;28;20459;-67
2021/12/09 04:08:48;;;;;;;46.35;24.25;;;0.70;99.90;;;;;;4980531;28;20487;-67
2021/12/09 04:11:15;;;;;;;47.30;24.25;;;0.60;99.90;;;;;;4997819;28;20430;-66
2021/12/09 04:13:41;;;;;;;52.00;23.27;;;0.70;99.90;;;;;;4980021;28;20069;-67
2021/12/09 04:16:07;;;;;;;51.90;24.27;;;0.60;99.90;;;;;;4981611;28;20062;-66
2021/12/09 04:18:35;;;;;;;46.05;23.17;;;0.60;99.90;;;;;;4997759;28;20045;-66
2021/12/09 04:21:01;;;;;;;39.50;22.98;;;0.60;99.90;;;;;;4980620;28;20073;-66
2021/12/09 04:23:27;;;;;;;45.97;22.90;;;0.60;99.90;;;;;;4980180;28;20050;-68
2021/12/09 04:25:53;;;;;;;43.25;23.42;;;1.00;99.90;;;;;;4980593;28;20061;-67
2021/12/09 04:28:19;;;;;;;48.28;22.70;;;0.50;99.90;;;;;;4997611;28;20058;-68
2021/12/09 04:30:45;;;;;;;41.42;22.23;;;0.50;99.90;;;;;;4997653;28;20379;-68
2021/12/09 04:33:11;;;;;;;41.88;23.75;;;0.50;99.90;;;;;;4980645;28;20058;-65
2021/12/09 04:35:37;;;;;;;53.20;23.75;;;0.50;99.90;;;;;;4980443;28;20053;-65
2021/12/09 04:38:02;;;;;;;56.20;24.58;;;0.50;99.90;;;;;;4997337;28;20053;-66
2021/12/09 04:40:28;;;;;;;49.38;24.38;;;0.50;99.90;;;;;;4980496;28;20363;-66
2021/12/09 04:42:54;;;;;;;51.47;23.77;;;0.90;99.90;;;;;;4980521;28;20143;-66
2021/12/09 04:45:20;;;;;;;49.00;23.45;;;0.50;99.90;;;;;;4997352;28;20066;-67
2021/12/09 04:47:46;;;;;;;55.35;24.52;;;0.50;99.90;;;;;;4980043;28;20042;-66
2021/12/09 04:50:12;;;;;;;48.05;24.80;;;0.40;99.90;;;;;;4979837;28;20391;-68
2021/12/09 04:52:39;;;;;;;52.78;24.52;;;0.40;99.90;;;;;;4980127;28;20058;-67
2021/12/09 04:55:07;;;;;;;51.45;23.98;;;0.40;99.90;;;;;;4997055;28;20379;-68
2021/12/09 04:57:35;;;;;;;49.38;23.73;;;0.40;99.90;;;;;;4980406;28;20485;-66
2021/12/09 05:00:06;;;;;;;54.78;26.80;;;0.40;99.90;;;;;;4991318;28;20489;-65
2021/12/09 05:02:47;;;;;;;48.83;23.48;;;0.40;99.90;;;;;;4997148;28;20130;-67
2021/12/09 05:05:13;;;;;;;48.90;25.00;;;0.40;99.90;;;;;;4996972;28;20097;-66
2021/12/09 05:07:39;;;;;;;46.60;24.23;;;0.40;99.90;;;;;;4994825;28;20054;-67
2021/12/09 05:10:05;;;;;;;52.42;24.45;;;0.40;99.90;;;;;;4996625;28;20053;-67
2021/12/09 05:12:31;;;;;;;59.05;25.83;;;0.40;99.90;;;;;;4997017;28;20387;-68
2021/12/09 05:14:56;;;;;;;51.80;24.45;;;0.50;99.90;;;;;;4995839;28;20046;-67
2021/12/09 05:17:22;;;;;;;43.83;24.15;;;0.40;99.90;;;;;;4982070;28;20045;-67
2021/12/09 05:19:48;;;;;;;47.10;23.98;;;0.30;99.90;;;;;;4996715;28;20483;-66
2021/12/09 05:22:14;;;;;;;57.28;25.30;;;0.30;99.90;;;;;;4994834;28;20088;-68
2021/12/09 05:24:40;;;;;;;45.88;23.55;;;0.30;99.90;;;;;;4999287;28;20184;-67
2021/12/09 05:27:10;;;;;;;50.10;23.70;;;0.30;99.90;;;;;;4998585;28;20041;-67
2021/12/09 05:29:40;;;;;;;56.03;25.60;;;0.30;99.90;;;;;;4998999;28;20054;-67
2021/12/09 05:32:08;;;;;;;52.65;24.40;;;0.30;99.90;;;;;;5008882;28;20102;-68
2021/12/09 05:34:37;;;;;;;43.97;25.75;;;0.30;99.90;;;;;;4995643;28;20065;-67
2021/12/09 05:37:07;;;;;;;54.60;24.45;;;0.20;99.90;;;;;;4979326;28;20061;-67
2021/12/09 05:39:33;;;;;;;48.72;23.10;;;0.20;99.90;;;;;;4978915;28;20050;-66
2021/12/09 05:41:59;;;;;;;42.30;24.23;;;0.20;99.90;;;;;;4979362;28;20057;-66
2021/12/09 05:44:25;;;;;;;61.30;27.55;;;0.20;99.90;;;;;;4979388;28;20427;-68
2021/12/09 05:46:51;;;;;;;50.40;24.88;;;0.20;99.90;;;;;;4978770;28;20526;-67
2021/12/09 05:49:17;;;;;;;47.45;24.10;;;0.20;99.90;;;;;;4979042;28;20146;-65
2021/12/09 05:51:44;;;;;;;54.10;26.00;;;0.20;99.90;;;;;;4979204;28;20523;-66
2021/12/09 05:54:10;;;;;;;50.45;25.77;;;0.20;99.90;;;;;;4996185;28;20056;-67
2021/12/09 05:56:36;;;;;;;58.42;27.33;;;0.20;99.90;;;;;;4996178;28;20046;-67
2021/12/09 05:59:03;;;;;;;52.72;27.83;;;0.20;99.90;;;;;;4978670;28;20043;-67
2021/12/09 06:01:28;;;;;;;54.60;27.20;;;0.30;99.90;;;;;;5007661;28;20053;-67
2021/12/09 06:03:54;;;;;;;51.47;26.95;;;0.20;99.90;;;;;;4998829;28;20053;-67
2021/12/09 06:06:20;;;;;;;52.15;24.98;;;0.30;99.90;;;;;;5015323;28;20081;-67
2021/12/09 06:08:46;;;;;;;46.72;25.60;;;0.30;99.90;;;;;;5015292;28;20092;-66
2021/12/09 06:11:12;;;;;;;58.75;26.77;;;0.30;99.90;;;;;;5015846;28;20050;-66
2021/12/09 06:13:39;;;;;;;52.13;26.52;;;0.30;99.90;;;;;;4998344;28;20052;-66
2021/12/09 06:16:06;;;;;;;55.78;25.95;;;0.20;99.90;;;;;;4981802;28;20046;-66
2021/12/09 06:18:32;;;;;;;55.72;26.05;;;0.20;99.90;;;;;;4998671;28;20046;-66
2021/12/09 06:20:58;;;;;;;76.07;27.40;;;0.20;99.90;;;;;;4997986;28;20100;-67
2021/12/09 06:23:24;;;;;;;59.05;27.15;;;0.20;99.90;;;;;;5015254;28;20054;-66
2021/12/09 06:25:52;;;;;;;59.88;26.52;;;0.20;99.90;;;;;;4997765;28;20061;-67
2021/12/09 06:28:18;;;;;;;56.42;26.98;;;0.20;99.90;;;;;;5015352;28;20421;-66
2021/12/09 06:30:46;;;;;;;61.95;27.70;;;0.20;99.90;;;;;;4991504;28;20049;-67
2021/12/09 06:33:11;;;;;;;51.65;26.52;;;0.20;99.90;;;;;;4978255;28;20065;-67
2021/12/09 06:35:37;;;;;;;66.57;27.05;;;0.20;99.90;;;;;;4978466;28;20050;-66
2021/12/09 06:38:05;;;;;;;53.50;26.20;;;0.20;99.90;;;;;;4994809;28;20364;-67
2021/12/09 06:40:31;;;;;;;61.20;28.55;;;0.20;99.90;;;;;;4978149;28;20513;-67
2021/12/09 06:42:57;;;;;;;64.43;26.58;;;0.20;99.90;;;;;;4995702;28;20137;-68
2021/12/09 06:45:23;;;;;;;49.13;25.75;;;0.20;99.90;;;;;;4978170;28;20430;-67
2021/12/09 06:47:50;;;;;;;73.28;28.58;;;0.60;99.90;;;;;;4978058;28;20050;-66
2021/12/09 06:50:18;;;;;;;56.30;27.15;;;0.10;99.90;;;;;;5004435;28;20354;-68
2021/12/09 06:52:44;;;;;;;51.22;27.00;;;0.10;99.90;;;;;;4997619;28;20049;-67
2021/12/09 06:55:12;;;;;;;55.25;26.73;;;0.10;99.90;;;;;;5015247;28;20112;-67
2021/12/09 06:57:39;;;;;;;58.28;28.33;;;0.10;99.90;;;;;;5014956;28;20078;-68
2021/12/09 07:00:07;;;;;;;65.82;27.25;;;0.10;99.90;;;;;;5015224;28;20042;-66
2021/12/09 07:02:33;;;;;;;51.17;26.42;;;0.10;99.90;;;;;;4997453;28;20089;-66
2021/12/09 07:04:58;;;;;;;53.50;25.35;;;0.10;99.90;;;;;;5014840;28;20092;-66
2021/12/09 07:07:24;;;;;;;61.70;28.42;;;0.10;99.90;;;;;;4998154;28;20046;-68
2021/12/09 07:09:50;;;;;;;64.15;27.33;;;0.10;99.90;;;;;;4997538;28;20525;-68
2021/12/09 07:12:15;;;;;;;55.47;26.70;;;0.10;99.90;;;;;;4997573;28;20367;-67
2021/12/09 07:14:43;;;;;;;51.75;26.60;;;0.00;99.90;;;;;;5014753;28;20125;-68
2021/12/09 07:17:09;;;;;;;48.20;23.98;;;0.00;99.90;;;;;;5014804;28;20061;-68
2021/12/09 07:19:35;;;;;;;55.35;25.02;;;0.00;99.90;;;;;;4993637;28;20050;-68
2021/12/09 07:22:02;;;;;;;59.90;25.13;;;-0.10;99.90;;;;;;4977934;28;20069;-67
2021/12/09 07:24:27;;;;;;;56.97;26.73;;;-0.10;99.90;;;;;;4977999;28;20443;-67
2021/12/09 07:26:53;;;;;;;52.58;24.75;;;-0.10;99.90;;;;;;4995021;28;20132;-67
2021/12/09 07:29:19;;;;;;;51.92;26.25;;;-0.10;99.90;;;;;;4977911;28;20479;-67
2021/12/09 07:31:45;;;;;;;55.35;25.23;;;-0.10;99.90;;;;;;4994536;28;20065;-68
2021/12/09 07:34:11;;;;;;;64.03;27.35;;;0.10;99.90;;;;;;4995255;28;20050;-66
2021/12/09 07:36:36;;;;;;;70.32;27.83;;;-0.10;99.90;;;;;;4995164;28;20125;-67
2021/12/09 07:39:03;;;;;;;65.00;27.67;;;-0.10;99.90;;;;;;4994894;28;20058;-66
2021/12/09 07:41:28;;;;;;;57.33;27.50;;;0.00;99.90;;;;;;4977778;28;20459;-68
2021/12/09 07:43:54;;;;;;;61.53;25.92;;;0.00;99.90;;;;;;4978632;28;20069;-66
2021/12/09 07:46:19;;;;;;;60.10;26.60;;;0.00;99.90;;;;;;4977518;28;20085;-68
2021/12/09 07:48:45;;;;;;;68.15;27.25;;;0.00;99.90;;;;;;4995298;28;20069;-66
2021/12/09 07:51:11;;;;;;;60.08;26.73;;;0.00;99.90;;;;;;4999767;28;20543;-67
2021/12/09 07:53:36;;;;;;;64.22;28.30;;;0.10;99.90;;;;;;5017758;28;20053;-66
2021/12/09 07:56:02;;;;;;;59.70;27.33;;;0.00;99.90;;;;;;4984702;28;20351;-69
2021/12/09 07:58:28;;;;;;;55.78;27.33;;;0.00;99.90;;;;;;5000697;28;20371;-66
2021/12/09 08:00:54;;;;;;;58.90;26.30;;;0.00;99.90;;;;;;5000715;28;20041;-65
2021/12/09 08:03:20;;;;;;;56.80;25.15;;;0.00;99.90;;;;;;5017880;28;20046;-67
2021/12/09 08:05:47;;;;;;;70.75;27.42;;;0.00;99.90;;;;;;5017592;28;20038;-66
2021/12/09 08:08:14;;;;;;;60.00;27.83;;;0.00;99.90;;;;;;5000862;28;20053;-67
2021/12/09 08:10:40;;;;;;;62.70;26.92;;;0.00;99.90;;;;;;5000475;28;20141;-68
2021/12/09 08:13:07;;;;;;;56.85;26.13;;;0.00;99.90;;;;;;5000337;28;20316;-67
2021/12/09 08:15:37;;;;;;;51.75;26.10;;;0.40;99.90;;;;;;5000645;28;20057;-67
2021/12/09 08:20:46;;;;;;;55.55;24.50;;;0.10;99.90;;;;;;4984573;28;20477;-66
2021/12/09 08:23:12;;;;;;;58.72;27.15;;;0.10;99.90;;;;;;4997775;28;20144;-66
2021/12/09 08:25:37;;;;;;;64.50;25.38;;;0.10;99.90;;;;;;4997568;28;20101;-65
2021/12/09 08:28:05;;;;;;;58.38;26.52;;;0.60;99.90;;;;;;4997662;28;20050;-66
2021/12/09 08:30:30;;;;;;;50.60;26.13;;;0.10;99.90;;;;;;4997806;28;20052;-68
2021/12/09 08:32:56;;;;;;;59.95;27.77;;;0.10;99.90;;;;;;4997892;28;20046;-66
2021/12/09 08:35:22;;;;;;;57.65;26.40;;;0.20;99.90;;;;;;4997653;28;20547;-67
2021/12/09 08:37:49;;;;;;;64.32;27.98;;;0.70;99.90;;;;;;4997604;28;20054;-68
2021/12/09 08:40:15;;;;;;;56.30;25.27;;;0.30;99.90;;;;;;4997219;28;20368;-68
2021/12/09 08:42:42;;;;;;;56.35;26.05;;;0.30;99.90;;;;;;4998029;28;20109;-66
2021/12/09 08:45:10;;;;;;;57.70;27.38;;;0.30;99.90;;;;;;4980466;28;20061;-66
2021/12/09 08:47:40;;;;;;;57.50;25.40;;;0.40;99.90;;;;;;4980325;28;20063;-67
2021/12/09 08:50:08;;;;;;;56.92;27.42;;;0.40;99.90;;;;;;5006532;28;20125;-67
2021/12/09 08:52:35;;;;;;;43.58;24.13;;;0.40;99.90;;;;;;4999632;28;20137;-68
2021/12/09 08:55:00;;;;;;;52.47;25.00;;;0.40;99.90;;;;;;5000406;28;20057;-66
2021/12/09 08:57:27;;;;;;;54.92;26.90;;;0.40;99.90;;;;;;4999696;28;20481;-66
2021/12/09 08:59:52;;;;;;;50.63;25.75;;;0.60;99.90;;;;;;5016491;28;20133;-66
2021/12/09 09:02:18;;;;;;;50.17;25.05;;;1.00;99.90;;;;;;5016446;28;20089;-66
2021/12/09 09:04:45;;;;;;;54.03;25.23;;;1.10;99.90;;;;;;4999523;28;20042;-68
2021/12/09 09:07:11;;;;;;;49.72;24.25;;;0.50;99.90;;;;;;4998857;28;20084;-68
2021/12/09 09:09:38;;;;;;;51.08;24.10;;;0.80;99.90;;;;;;5000315;28;20107;-67
2021/12/09 09:12:10;;;;;;;53.85;24.67;;;0.70;99.90;;;;;;4999518;28;20057;-66
2021/12/09 09:14:36;;;;;;;44.83;22.67;;;0.60;99.90;;;;;;4999373;28;20458;-67
2021/12/09 09:17:02;;;;;;;57.17;25.20;;;0.70;99.90;;;;;;4999432;28;20042;-68
2021/12/09 09:19:28;;;;;;;46.38;24.27;;;0.60;99.90;;;;;;5011951;28;20049;-67
2021/12/09 09:21:53;;;;;;;44.03;23.13;;;0.70;99.90;;;;;;5015706;28;20397;-68
2021/12/09 09:24:19;;;;;;;59.08;25.42;;;0.70;99.90;;;;;;5016541;28;20045;-66
2021/12/09 09:26:45;;;;;;;46.15;23.27;;;0.70;99.90;;;;;;5016108;28;20042;-67
2021/12/09 09:29:11;;;;;;;59.03;25.48;;;0.80;99.90;;;;;;5016412;28;20340;-67
2021/12/09 09:31:39;;;;;;;45.80;23.40;;;0.80;99.90;;;;;;5016470;28;20485;-68
2021/12/09 09:34:05;;;;;;;43.15;23.23;;;0.90;99.90;;;;;;5016275;28;20049;-68
2021/12/09 09:36:32;;;;;;;45.78;23.30;;;1.00;99.90;;;;;;4998859;28;20474;-66
2021/12/09 09:39:06;;;;;;;45.47;22.17;;;0.90;99.90;;;;;;5015970;28;20103;-68
2021/12/09 09:41:35;;;;;;;36.53;21.85;;;1.00;99.90;;;;;;5016297;28;20374;-67
2021/12/09 09:44:13;;;;;;;40.65;21.42;;;1.00;99.90;;;;;;5015944;28;20048;-68
2021/12/09 09:46:40;;;;;;;42.92;20.23;;;1.00;99.90;;;;;;5015895;28;20068;-67
2021/12/09 09:49:06;;;;;;;40.58;21.52;;;1.10;99.90;;;;;;4994622;28;20077;-68
2021/12/09 09:51:36;;;;;;;45.13;21.08;;;1.10;99.90;;;;;;4996097;28;20089;-66
2021/12/09 09:54:05;;;;;;;36.33;20.58;;;1.20;99.90;;;;;;4978911;28;20050;-66
2021/12/09 09:56:34;;;;;;;42.92;20.02;;;1.30;99.90;;;;;;4979214;28;20363;-66
2021/12/09 09:59:04;;;;;;;44.75;21.55;;;1.20;99.90;;;;;;4996383;28;20121;-68
2021/12/09 10:01:33;;;;;;;47.15;20.92;;;1.30;99.90;;;;;;4995933;28;20141;-68
2021/12/09 10:04:10;;;;;;;37.80;19.10;;;1.30;99.90;;;;;;4978857;28;20061;-66
2021/12/09 10:06:39;;;;;;;38.20;19.25;;;1.30;99.90;;;;;;4979066;28;20053;-66
2021/12/09 10:09:06;;;;;;;37.35;18.88;;;1.40;99.90;;;;;;4996269;28;20053;-67
2021/12/09 10:11:33;;;;;;;37.50;18.50;;;1.40;99.90;;;;;;4995768;28;20364;-66
2021/12/09 10:14:17;;;;;;;34.33;17.90;;;1.50;99.90;;;;;;4978076;28;20046;-67
2021/12/09 10:16:45;;;;;;;40.28;19.50;;;1.50;99.90;;;;;;4996206;28;20065;-68
2021/12/09 10:19:22;;;;;;;38.45;20.25;;;1.50;99.90;;;;;;4999465;28;20425;-66
2021/12/09 10:21:48;;;;;;;38.35;18.58;;;1.60;99.90;;;;;;4978458;28;20059;-68
2021/12/09 10:24:16;;;;;;;34.33;17.85;;;1.60;99.90;;;;;;4995830;28;20093;-67
2021/12/09 10:26:46;;;;;;;29.95;16.42;;;1.70;99.90;;;;;;4995559;28;20050;-66
2021/12/09 10:29:19;;;;;;;35.00;18.05;;;1.70;99.90;;;;;;4995955;28;20364;-67
2021/12/09 10:31:59;;;;;;;33.67;17.75;;;1.70;99.90;;;;;;4995909;28;20043;-66
2021/12/09 10:34:39;;;;;;;43.58;18.20;;;1.80;99.90;;;;;;4978420;28;20053;-68
2021/12/09 10:37:07;;;;;;;30.65;17.40;;;1.80;99.90;;;;;;4978724;28;20137;-67
2021/12/09 10:39:36;;;;;;;36.80;16.13;;;1.90;99.90;;;;;;4978381;28;20042;-67
2021/12/09 10:42:24;;;;;;;30.80;17.17;;;1.90;99.90;;;;;;4978053;28;20088;-67
2021/12/09 10:45:06;;;;;;;31.48;16.08;;;1.90;99.90;;;;;;4978458;28;20463;-68
2021/12/09 10:53:05;;;;;;;26.70;15.60;;;2.20;99.90;;;;;;4997757;28;20050;-67
2021/12/09 10:55:34;;;;;;;38.28;16.45;;;2.20;99.90;;;;;;4998059;28;20064;-68
2021/12/09 10:58:04;;;;;;;27.17;16.23;;;2.30;99.90;;;;;;4998205;28;20057;-67
2021/12/09 11:01:11;;;;;;;26.58;15.75;;;2.40;99.90;;;;;;5014997;28;20135;-68
2021/12/09 11:03:43;;;;;;;27.52;15.77;;;2.50;99.90;;;;;;5002204;28;20061;-67
2021/12/09 11:06:12;;;;;;;32.80;18.02;;;2.60;99.90;;;;;;5014990;28;20139;-66
2021/12/09 11:08:53;;;;;;;33.58;17.02;;;2.90;99.90;;;;;;5015187;28;20491;-68
2021/12/09 11:11:32;;;;;;;33.85;18.02;;;2.70;99.90;;;;;;5015311;28;20057;-67
2021/12/09 11:14:02;;;;;;;27.13;15.52;;;2.80;99.90;;;;;;5015060;28;20196;-68
2021/12/09 11:16:39;;;;;;;30.45;17.40;;;2.80;99.90;;;;;;5014693;28;20050;-69
2021/12/09 11:19:12;;;;;;;34.22;15.60;;;2.80;99.90;;;;;;4992593;28;20042;-66
2021/12/09 11:21:53;;;;;;;27.17;16.50;;;2.90;99.90;;;;;;4978634;28;20061;-66
2021/12/09 11:24:21;;;;;;;33.22;16.92;;;2.90;99.90;;;;;;4997107;28;20042;-68
2021/12/09 11:26:57;;;;;;;30.35;15.85;;;2.90;99.90;;;;;;4999135;28;20061;-67
2021/12/09 11:29:35;;;;;;;32.85;15.80;;;2.90;99.90;;;;;;4999236;28;20450;-66
2021/12/09 11:32:13;;;;;;;25.50;15.40;;;2.90;99.90;;;;;;4998889;28;20513;-68
2021/12/09 11:34:53;;;;;;;31.48;15.00;;;2.90;99.90;;;;;;4982077;28;20380;-67
2021/12/09 11:40:21;;;;;;;31.13;16.08;;;2.90;99.90;;;;;;4981659;28;20375;-67
2021/12/09 11:42:55;;;;;;;29.48;15.77;;;2.90;99.90;;;;;;4975030;28;20138;-66
2021/12/09 11:45:24;;;;;;;37.25;15.82;;;3.00;99.90;;;;;;4981211;28;20046;-68
2021/12/09 11:47:53;;;;;;;35.33;17.33;;;2.90;99.90;;;;;;4981078;28;20057;-67
2021/12/09 11:50:31;;;;;;;42.10;17.33;;;3.00;99.90;;;;;;4997702;28;20065;-67
2021/12/09 11:53:00;;;;;;;38.55;17.65;;;3.00;99.90;;;;;;5018076;28;20497;-66
2021/12/09 11:55:34;;;;;;;43.92;18.10;;;3.00;99.90;;;;;;5001124;28;20054;-68
2021/12/09 11:58:05;;;;;;;42.03;17.00;;;3.10;99.90;;;;;;5018046;28;20054;-67
2021/12/09 12:12:24;;;;;;;38.33;16.98;;;3.20;99.90;;;;;;5000550;28;20054;-66
2021/12/09 12:14:54;;;;;;;36.55;16.17;;;3.20;99.90;;;;;;5017621;28;20406;-68
2021/12/09 12:17:40;;;;;;;37.70;16.38;;;3.20;99.90;;;;;;5000842;28;20374;-66
2021/12/09 12:20:30;;;;;;;33.20;17.58;;;3.20;99.90;;;;;;5001922;28;20050;-67
2021/12/09 12:31:31;;;;;;;36.63;16.23;;;3.20;99.90;;;;;;4997685;28;20054;-67
2021/12/09 12:42:19;;;;;;;39.15;16.35;;;3.30;99.90;;;;;;4997525;28;20500;-67
2021/12/09 12:48:46;;;;;;;35.28;15.93;;;3.30;99.90;;;;;;4981534;28;20062;-66
2021/12/09 12:51:51;;;;;;;31.10;16.60;;;3.40;99.90;;;;;;4980481;28;20054;-66
2021/12/09 12:54:31;;;;;;;30.73;16.63;;;3.40;99.90;;;;;;4989953;28;20058;-67
2021/12/09 12:57:01;;;;;;;26.80;15.88;;;3.40;99.90;;;;;;4997214;28;20084;-67
2021/12/09 12:59:35;;;;;;;27.38;14.95;;;3.40;99.90;;;;;;4997088;28;20496;-66
2021/12/09 13:02:03;;;;;;;34.13;17.23;;;3.40;99.90;;;;;;4997176;28;20467;-67
2021/12/09 13:05:06;;;;;;;28.90;17.45;;;3.40;99.90;;;;;;4980430;28;20058;-66
2021/12/09 13:21:42;;;;;;;33.28;17.50;;;3.40;99.90;;;;;;4960436;28;20428;-66
2021/12/09 13:24:46;;;;;;;35.10;17.75;;;3.40;99.90;;;;;;4977707;28;20051;-66
2021/12/09 13:28:05;;;;;;;39.10;16.10;;;3.40;99.90;;;;;;4960308;28;20060;-65
2021/12/09 13:36:17;;;;;;;41.50;18.48;;;3.50;99.90;;;;;;4977235;28;20062;-67
2021/12/09 13:50:13;;;;;;;40.25;19.05;;;3.50;99.90;;;;;;5006346;28;20489;-67
2021/12/09 13:55:10;;;;;;;32.17;18.73;;;3.50;99.90;;;;;;5015748;28;20447;-68
2021/12/09 13:57:41;;;;;;;34.88;18.08;;;3.50;99.90;;;;;;5016131;28;20050;-66
2021/12/09 14:00:24;;;;;;;36.92;17.83;;;3.60;99.90;;;;;;4998821;28;20094;-66
2021/12/09 14:02:52;;;;;;;33.90;18.75;;;3.50;99.90;;;;;;5015704;28;20061;-68